Time;durP1;ratioP1;P1;durP2;ratioP2;P2;SDS_P1;SDS_P2;PMS_P1;PMS_P2;Temp;Humidity;BMP_temperature;BMP_pressure;BME280_temperature;BME280_humidity;BME280_pressure;Samples;Min_cycle;Max_cycle;Signal;HPM_P1;HPM_P2
2021/09/23 00:01:18;;;;;;;4.95;2.85;;;;;;;8.92;71.87;99253.92;1716651;83;20974;-35
2021/09/23 00:04:02;;;;;;;4.40;3.33;;;;;;;8.87;72.03;99257.45;1722301;83;21508;-35
2021/09/23 00:06:26;;;;;;;7.53;3.20;;;;;;;8.85;72.29;99257.03;1699533;83;20958;-35
2021/09/23 00:08:54;;;;;;;4.47;2.92;;;;;;;8.85;72.33;99252.42;1710802;82;21050;-35
2021/09/23 00:11:20;;;;;;;4.03;2.25;;;;;;;8.88;72.31;99250.36;1700204;83;21112;-35
2021/09/23 00:13:48;;;;;;;3.83;2.80;;;;;;;8.90;72.15;99252.16;1726210;83;20983;-35
2021/09/23 00:16:20;;;;;;;4.17;2.95;;;;;;;8.89;72.16;99252.50;1706017;81;20969;-36
2021/09/23 00:18:45;;;;;;;3.98;2.75;;;;;;;8.83;72.44;99261.44;1713225;81;20942;-35
2021/09/23 00:21:12;;;;;;;3.77;2.80;;;;;;;8.78;72.56;99261.70;1699932;83;21041;-35
2021/09/23 00:23:39;;;;;;;3.40;2.50;;;;;;;8.75;72.66;99257.00;1727548;82;21152;-35
2021/09/23 00:26:06;;;;;;;2.70;2.50;;;;;;;8.76;72.62;99261.27;1712137;82;21651;-35
2021/09/23 00:28:32;;;;;;;2.98;2.27;;;;;;;8.83;72.56;99257.38;1705906;83;20993;-35
2021/09/23 00:30:59;;;;;;;2.80;2.25;;;;;;;8.82;72.20;99257.16;1703852;83;21105;-35
2021/09/23 00:33:25;;;;;;;6.58;3.00;;;;;;;8.78;72.43;99258.98;1688212;84;21568;-35
2021/09/23 00:35:52;;;;;;;3.42;2.67;;;;;;;8.77;72.49;99258.77;1714339;83;22342;-35
2021/09/23 00:38:19;;;;;;;4.45;3.05;;;;;;;8.77;72.59;99261.47;1715701;80;20914;-35
2021/09/23 00:40:46;;;;;;;3.35;2.42;;;;;;;8.82;72.53;99259.07;1704460;83;21034;-35
2021/09/23 00:43:13;;;;;;;4.55;2.60;;;;;;;8.90;72.31;99260.27;1689263;83;21540;-35
2021/09/23 00:45:40;;;;;;;3.52;2.50;;;;;;;8.92;72.07;99259.89;1738214;82;21068;-35
2021/09/23 00:48:08;;;;;;;4.08;2.52;;;;;;;8.86;72.26;99262.08;1715445;83;21120;-35
2021/09/23 00:50:37;;;;;;;3.95;2.90;;;;;;;8.84;72.26;99259.52;1711231;82;21534;-36
2021/09/23 00:53:06;;;;;;;5.12;2.85;;;;;;;8.76;72.33;99261.27;1691362;84;21014;-35
2021/09/23 00:55:32;;;;;;;3.58;2.90;;;;;;;8.71;72.35;99260.19;1719284;83;21800;-35
2021/09/23 00:57:59;;;;;;;3.87;3.02;;;;;;;8.68;72.44;99263.56;1737021;82;21547;-35
2021/09/23 01:00:26;;;;;;;5.30;3.55;;;;;;;8.68;72.50;99260.86;1712140;82;21132;-35
2021/09/23 01:02:56;;;;;;;;;;;;;;;8.64;72.80;99269.45;1710028;82;20977;-35
2021/09/23 01:05:25;;;;;;;6.00;3.47;;;;;;;8.63;72.87;99265.18;1709161;82;20170;-35
2021/09/23 01:07:52;;;;;;;3.70;3.25;;;;;;;8.50;73.22;99264.48;1728726;81;21062;-34
2021/09/23 01:10:21;;;;;;;4.22;2.72;;;;;;;8.59;73.23;99262.39;1722920;82;21021;-35
2021/09/23 01:12:48;;;;;;;4.25;3.02;;;;;;;8.71;72.84;99261.54;1713881;82;21120;-35
2021/09/23 01:15:17;;;;;;;6.72;3.40;;;;;;;8.77;72.76;99265.52;1727047;82;21525;-34
2021/09/23 01:17:45;;;;;;;5.08;3.90;;;;;;;8.79;72.60;99265.97;1717668;83;21129;-35
2021/09/23 01:20:13;;;;;;;5.97;4.00;;;;;;;8.77;72.66;99269.58;1698887;84;21022;-35
2021/09/23 01:22:42;;;;;;;4.92;3.35;;;;;;;8.79;72.70;99268.67;1700640;83;20990;-35
2021/09/23 01:25:19;;;;;;;4.40;3.55;;;;;;;8.85;72.35;99265.94;1714305;83;21791;-35
2021/09/23 01:27:47;;;;;;;5.85;3.70;;;;;;;8.86;72.15;99259.37;1719904;82;21033;-35
2021/09/23 01:30:16;;;;;;;7.28;3.80;;;;;;;8.84;72.23;99261.66;1724123;82;21044;-35
2021/09/23 01:32:45;;;;;;;6.00;4.00;;;;;;;8.79;72.37;99257.86;1699064;83;20946;-35
2021/09/23 01:35:13;;;;;;;7.03;3.83;;;;;;;8.74;72.46;99254.07;1708465;81;21033;-35
2021/09/23 01:37:40;;;;;;;5.10;3.62;;;;;;;8.69;72.46;99255.69;1706529;82;21151;-35
2021/09/23 01:40:09;;;;;;;3.87;3.17;;;;;;;8.64;72.53;99254.03;1731759;82;20930;-35
2021/09/23 01:42:38;;;;;;;;;;;;;;;8.67;72.67;99257.94;1722353;82;20980;-35
2021/09/23 01:45:07;;;;;;;6.08;3.75;;;;;;;8.71;72.59;99259.59;1715494;82;20363;-35
2021/09/23 01:47:35;;;;;;;5.05;4.12;;;;;;;8.58;73.03;99258.12;1727770;81;21000;-35
2021/09/23 01:50:04;;;;;;;4.58;3.52;;;;;;;8.57;73.04;99261.16;1733965;82;21127;-35
2021/09/23 01:52:32;;;;;;;3.87;3.45;;;;;;;8.50;73.04;99246.92;1725439;81;21080;-35
2021/09/23 01:55:01;;;;;;;3.83;2.92;;;;;;;8.57;73.03;99252.48;1748741;80;21000;-35
2021/09/23 01:57:28;;;;;;;5.42;3.20;;;;;;;8.61;72.87;99253.95;1725257;82;21000;-35
2021/09/23 01:59:54;;;;;;;4.45;3.60;;;;;;;8.60;72.88;99260.48;1744191;82;21064;-35
2021/09/23 02:02:22;;;;;;;6.37;3.67;;;;;;;8.59;73.09;99260.25;1748251;82;21192;-35
2021/09/23 02:04:54;;;;;;;4.58;3.42;;;;;;;8.55;72.98;99256.13;1730152;82;20942;-35
2021/09/23 02:07:18;;;;;;;4.95;3.33;;;;;;;8.50;73.16;99253.67;1715001;82;21530;-34
2021/09/23 02:09:49;;;;;;;3.55;2.67;;;;;;;8.54;73.25;99251.84;1748845;82;21063;-35
2021/09/23 02:12:17;;;;;;;3.95;3.17;;;;;;;8.61;73.14;99252.03;1728279;82;21028;-35
2021/09/23 02:14:45;;;;;;;8.30;3.10;;;;;;;8.69;72.91;99250.28;1706160;82;20958;-35
2021/09/23 02:17:14;;;;;;;4.58;3.42;;;;;;;8.67;72.98;99250.62;1729341;82;20976;-35
2021/09/23 02:19:43;;;;;;;4.15;3.20;;;;;;;8.65;72.92;99250.20;1738842;82;20956;-34
2021/09/23 02:22:12;;;;;;;3.90;2.98;;;;;;;8.64;72.99;99249.98;1723269;82;20972;-35
2021/09/23 02:24:38;;;;;;;4.92;3.52;;;;;;;8.71;73.00;99248.78;1729405;82;21595;-35
2021/09/23 02:27:07;;;;;;;6.28;3.55;;;;;;;8.79;72.74;99245.70;1731062;82;20932;-35
2021/09/23 02:29:34;;;;;;;3.90;3.00;;;;;;;8.86;72.57;99244.50;1725035;82;21042;-35
2021/09/23 02:32:04;;;;;;;4.53;3.37;;;;;;;8.87;72.64;99242.02;1736834;80;21008;-35
2021/09/23 02:34:31;;;;;;;7.62;3.33;;;;;;;8.85;72.41;99236.77;1729100;82;20976;-35
2021/09/23 02:36:57;;;;;;;4.87;3.27;;;;;;;8.82;72.38;99243.64;1736184;82;21043;-35
2021/09/23 02:39:23;;;;;;;3.62;3.02;;;;;;;8.79;72.26;99238.94;1731193;80;21806;-35
2021/09/23 02:41:50;;;;;;;4.05;3.30;;;;;;;8.78;72.27;99241.42;1716330;82;20917;-35
2021/09/23 02:44:18;;;;;;;4.37;3.40;;;;;;;8.80;72.36;99235.67;1714260;82;21012;-34
2021/09/23 02:46:45;;;;;;;4.05;3.65;;;;;;;8.79;72.43;99243.00;1698967;83;21584;-35
2021/09/23 02:49:12;;;;;;;4.40;3.25;;;;;;;8.73;72.21;99234.93;1701282;84;21018;-35
2021/09/23 02:51:40;;;;;;;5.00;3.60;;;;;;;8.62;72.25;99237.93;1701250;83;20974;-35
2021/09/23 02:54:08;;;;;;;4.83;3.00;;;;;;;8.61;72.46;99232.33;1703778;83;20946;-35
2021/09/23 02:56:34;;;;;;;3.65;3.30;;;;;;;8.64;72.24;99232.97;1730491;82;21520;-35
2021/09/23 02:59:02;;;;;;;3.77;3.37;;;;;;;8.61;72.39;99235.03;1737354;82;20965;-35
2021/09/23 03:01:29;;;;;;;4.53;3.37;;;;;;;8.54;72.64;99236.98;1725873;83;21014;-35
2021/09/23 03:03:58;;;;;;;4.03;3.22;;;;;;;8.51;72.89;99232.85;1708145;82;21860;-35
2021/09/23 03:06:24;;;;;;;3.85;3.02;;;;;;;8.53;72.95;99231.92;1695091;83;20966;-35
2021/09/23 03:08:53;;;;;;;3.15;2.75;;;;;;;8.51;72.93;99229.59;1698857;83;21033;-35
2021/09/23 03:11:19;;;;;;;3.87;2.98;;;;;;;8.60;73.03;99228.84;1706228;83;21015;-35
2021/09/23 03:13:46;;;;;;;4.70;2.80;;;;;;;8.66;72.69;99234.77;1721581;82;21137;-35
2021/09/23 03:16:12;;;;;;;3.90;3.20;;;;;;;8.67;72.72;99236.31;1705334;81;21137;-35
2021/09/23 03:18:39;;;;;;;4.45;3.20;;;;;;;8.65;72.56;99230.50;1714158;83;20954;-35
2021/09/23 03:21:07;;;;;;;4.33;3.42;;;;;;;8.60;72.50;99233.45;1698761;83;21069;-35
2021/09/23 03:23:34;;;;;;;3.80;3.05;;;;;;;8.57;72.63;99236.84;1713125;81;21034;-34
2021/09/23 03:26:04;;;;;;;4.75;3.00;;;;;;;8.61;72.54;99239.09;1721200;82;21544;-35
2021/09/23 03:28:33;;;;;;;4.53;3.80;;;;;;;8.64;72.61;99237.03;1688060;83;21561;-35
2021/09/23 03:31:01;;;;;;;3.42;3.05;;;;;;;8.63;72.77;99235.45;1699132;83;21046;-35
2021/09/23 03:33:29;;;;;;;5.75;3.50;;;;;;;8.65;72.78;99242.66;1711943;83;20938;-35
2021/09/23 03:35:57;;;;;;;5.30;2.77;;;;;;;8.62;72.66;99243.34;1722940;83;21386;-35
2021/09/23 03:38:25;;;;;;;3.33;3.02;;;;;;;8.67;72.76;99244.42;1711597;83;21041;-35
2021/09/23 03:40:53;;;;;;;4.60;2.90;;;;;;;8.75;72.61;99242.70;1712111;83;21553;-35
2021/09/23 03:43:21;;;;;;;4.45;3.17;;;;;;;8.84;72.36;99244.65;1700695;83;21025;-35
2021/09/23 03:45:50;;;;;;;3.60;2.80;;;;;;;8.85;72.21;99252.42;1698971;83;21029;-35
2021/09/23 03:48:20;;;;;;;5.20;3.05;;;;;;;8.81;71.79;99248.82;1694217;83;21331;-35
2021/09/23 03:50:49;;;;;;;5.45;2.85;;;;;;;8.74;72.03;99248.66;1700167;83;20946;-35
2021/09/23 03:53:16;;;;;;;6.45;2.90;;;;;;;8.76;72.09;99247.77;1732676;82;21499;-35
2021/09/23 03:55:43;;;;;;;3.75;2.90;;;;;;;8.77;71.72;99246.61;1753307;79;20969;-35
2021/09/23 03:58:11;;;;;;;3.33;2.92;;;;;;;8.67;71.80;99244.42;1767510;79;21814;-34
2021/09/23 04:00:39;;;;;;;3.58;2.90;;;;;;;8.57;72.12;99240.89;1749663;80;21016;-35
2021/09/23 04:03:05;;;;;;;4.92;3.15;;;;;;;8.54;72.36;99242.95;1767645;81;21062;-35
2021/09/23 04:05:32;;;;;;;3.72;2.80;;;;;;;8.52;72.43;99241.19;1751948;79;21119;-35
2021/09/23 04:08:02;;;;;;;3.67;2.40;;;;;;;8.53;72.50;99240.02;1771187;81;21009;-35
2021/09/23 04:10:30;;;;;;;4.53;2.70;;;;;;;8.58;72.34;99235.16;1772693;81;20957;-35
2021/09/23 04:12:57;;;;;;;2.50;2.30;;;;;;;8.65;72.35;99231.84;1748766;81;21524;-35
2021/09/23 04:15:25;;;;;;;4.45;2.80;;;;;;;8.64;72.33;99234.33;1759665;81;21093;-35
2021/09/23 04:17:53;;;;;;;3.45;2.98;;;;;;;8.63;72.24;99238.16;1744271;81;21103;-34
2021/09/23 04:20:20;;;;;;;4.03;2.80;;;;;;;8.58;72.39;99239.77;1756258;79;20987;-35
2021/09/23 04:22:53;;;;;;;3.10;2.42;;;;;;;8.61;72.52;99241.79;1784074;79;20970;-35
2021/09/23 04:25:20;;;;;;;4.00;2.52;;;;;;;8.68;72.28;99246.00;1758251;81;21244;-34
2021/09/23 04:27:46;;;;;;;3.10;2.77;;;;;;;8.67;72.24;99243.86;1763978;79;21076;-35
2021/09/23 04:30:14;;;;;;;4.42;3.15;;;;;;;8.63;72.33;99244.91;1769700;81;20980;-35
2021/09/23 04:32:41;;;;;;;5.42;3.02;;;;;;;8.56;72.52;99239.34;1772665;80;20926;-35
2021/09/23 04:35:10;;;;;;;3.15;2.50;;;;;;;8.52;72.83;99241.94;1738286;82;21014;-35
2021/09/23 04:37:37;;;;;;;3.02;2.72;;;;;;;8.53;73.02;99248.92;1671392;83;20919;-35
2021/09/23 04:40:07;;;;;;;2.80;2.47;;;;;;;8.59;72.87;99248.88;1710726;81;21116;-35
2021/09/23 04:42:35;;;;;;;;;;;;;;;8.62;72.83;99246.83;1728152;82;21123;-35
2021/09/23 04:45:02;;;;;;;5.62;2.85;;;;;;;8.57;72.95;99247.65;1732858;81;20583;-35
2021/09/23 04:47:31;;;;;;;5.53;3.30;;;;;;;8.43;73.42;99249.43;1731874;82;21096;-35
2021/09/23 04:49:58;;;;;;;6.08;3.00;;;;;;;8.41;73.59;99243.61;1738091;82;21643;-35
2021/09/23 04:52:24;;;;;;;3.25;2.92;;;;;;;8.45;73.68;99249.09;1736549;82;21049;-35
2021/09/23 04:54:51;;;;;;;3.75;3.00;;;;;;;8.55;73.71;99249.37;1737551;82;21130;-35
2021/09/23 04:57:18;;;;;;;3.30;3.00;;;;;;;8.67;73.36;99252.53;1685303;84;21024;-35
2021/09/23 04:59:47;;;;;;;5.00;2.90;;;;;;;8.72;73.32;99257.67;1731366;82;21340;-35
2021/09/23 05:02:15;;;;;;;3.52;3.05;;;;;;;8.75;73.08;99254.86;1735546;82;21512;-35
2021/09/23 05:04:44;;;;;;;3.10;2.80;;;;;;;8.79;73.17;99249.75;1746169;82;21001;-35
2021/09/23 05:07:13;;;;;;;3.12;2.72;;;;;;;8.91;73.26;99246.16;1729976;81;21025;-35
2021/09/23 05:09:41;;;;;;;3.42;2.40;;;;;;;9.02;72.48;99251.25;1723624;82;20965;-35
2021/09/23 05:12:10;;;;;;;;;;;;;;;9.02;71.82;99244.48;1719026;83;21594;-35
2021/09/23 05:14:37;;;;;;;3.52;2.77;;;;;;;9.01;71.84;99242.34;1716434;82;20172;-35
2021/09/23 05:17:06;;;;;;;5.35;2.62;;;;;;;8.94;72.51;99244.12;1731640;81;20941;-35
2021/09/23 05:19:34;;;;;;;3.75;2.60;;;;;;;9.04;72.50;99244.37;1752541;81;21189;-35
2021/09/23 05:22:03;;;;;;;2.80;2.50;;;;;;;9.06;71.69;99242.08;1752083;80;21538;-35
2021/09/23 05:24:30;;;;;;;3.05;2.20;;;;;;;9.06;71.80;99250.76;1773711;79;20952;-35
2021/09/23 05:26:58;;;;;;;5.30;2.25;;;;;;;9.05;71.58;99247.86;1800697;79;20901;-35
2021/09/23 05:29:26;;;;;;;3.67;2.33;;;;;;;9.01;71.71;99253.16;1785616;79;21489;-34
2021/09/23 05:31:56;;;;;;;3.37;2.52;;;;;;;8.98;71.88;99249.82;1763791;80;25772;-35
2021/09/23 05:34:23;;;;;;;3.65;2.72;;;;;;;8.93;71.75;99248.73;1754739;80;20984;-34
2021/09/23 05:36:50;;;;;;;2.67;2.17;;;;;;;8.91;71.85;99251.00;1774879;80;20965;-34
2021/09/23 05:39:17;;;;;;;2.65;2.05;;;;;;;8.92;71.57;99255.27;1780573;79;21850;-34
2021/09/23 05:41:43;;;;;;;3.83;2.20;;;;;;;8.95;71.79;99250.53;1767724;78;21028;-34
2021/09/23 05:44:10;;;;;;;2.83;2.30;;;;;;;8.98;72.10;99252.53;1779940;80;21136;-34
2021/09/23 05:46:37;;;;;;;4.03;2.30;;;;;;;9.03;72.02;99251.47;1789247;80;21550;-34
2021/09/23 05:49:05;;;;;;;2.50;2.00;;;;;;;9.06;71.99;99247.48;1781204;79;21503;-35
2021/09/23 05:51:32;;;;;;;2.55;1.80;;;;;;;9.08;71.86;99261.45;1775332;80;21036;-35
2021/09/23 05:53:58;;;;;;;3.67;2.12;;;;;;;9.17;71.60;99255.84;1774434;80;21036;-34
2021/09/23 05:56:26;;;;;;;2.40;2.15;;;;;;;9.21;71.25;99259.41;1788623;79;21634;-34
2021/09/23 05:58:55;;;;;;;2.83;2.25;;;;;;;9.25;71.54;99263.55;1789086;79;20933;-34
2021/09/23 06:01:22;;;;;;;3.40;2.70;;;;;;;9.27;71.36;99258.58;1787111;80;20993;-35
2021/09/23 06:03:51;;;;;;;3.67;1.82;;;;;;;9.25;71.29;99260.84;1767019;80;20925;-34
2021/09/23 06:06:19;;;;;;;1.70;1.52;;;;;;;9.23;70.90;99264.48;1765862;79;21337;-34
2021/09/23 06:08:46;;;;;;;1.82;1.72;;;;;;;9.20;70.79;99265.20;1791327;78;21937;-34
2021/09/23 06:11:13;;;;;;;2.40;2.00;;;;;;;9.19;70.99;99263.06;1788660;80;20949;-34
2021/09/23 06:13:43;;;;;;;2.70;1.60;;;;;;;9.21;71.24;99261.33;1787373;80;21030;-34
2021/09/23 06:16:11;;;;;;;;;;;;;;;9.22;71.22;99266.40;1784465;78;21013;-34
2021/09/23 06:18:39;;;;;;;2.00;1.60;;;;;;;9.24;71.17;99264.70;1788583;79;20174;-35
2021/09/23 06:21:08;;;;;;;1.87;1.47;;;;;;;9.17;71.69;99268.02;1788426;79;21571;-35
2021/09/23 06:23:35;;;;;;;1.90;1.50;;;;;;;9.29;71.93;99269.28;1788136;79;20924;-35
2021/09/23 06:26:02;;;;;;;2.27;1.55;;;;;;;9.50;71.59;99265.66;1785690;80;20945;-35
2021/09/23 06:28:30;;;;;;;2.77;1.40;;;;;;;9.64;70.56;99262.47;1752758;80;21028;-34
2021/09/23 06:30:59;;;;;;;;;;;;;;;9.72;70.42;99265.56;1790392;79;20933;-35
2021/09/23 06:33:26;;;;;;;1.90;1.70;;;;;;;9.79;69.70;99267.04;1768445;80;21215;-34
2021/09/23 06:35:52;;;;;;;2.05;1.85;;;;;;;9.74;69.64;99265.97;1785944;78;21481;-35
2021/09/23 06:38:20;;;;;;;2.20;1.70;;;;;;;9.78;69.51;99269.53;1784848;79;20960;-34
2021/09/23 06:40:47;;;;;;;2.20;1.70;;;;;;;9.85;69.17;99265.62;1770699;80;21063;-34
2021/09/23 06:43:14;;;;;;;1.92;1.50;;;;;;;9.89;68.75;99262.41;1780507;80;21035;-35
2021/09/23 06:45:41;;;;;;;2.42;2.10;;;;;;;9.91;68.43;99272.89;1788334;80;21154;-35
2021/09/23 06:48:08;;;;;;;2.15;1.95;;;;;;;9.85;68.42;99262.13;1789070;80;21002;-35
2021/09/23 06:50:34;;;;;;;1.60;1.50;;;;;;;9.80;67.92;99259.14;1785152;80;21018;-34
2021/09/23 06:53:00;;;;;;;1.82;1.57;;;;;;;9.71;67.64;99261.27;1776099;79;21056;-35
2021/09/23 06:55:28;;;;;;;1.70;1.60;;;;;;;9.64;67.49;99266.53;1779519;80;21518;-35
2021/09/23 06:57:54;;;;;;;1.55;1.45;;;;;;;9.56;67.42;99269.67;1762961;80;21475;-34
2021/09/23 07:00:40;;;;;;;1.50;1.40;;;;;;;9.55;68.09;99270.02;1767052;80;21084;-35
2021/09/23 07:03:18;;;;;;;1.60;1.45;;;;;;;9.65;68.45;99269.45;1755951;80;21083;-35
2021/09/23 07:05:52;;;;;;;4.05;1.70;;;;;;;9.72;68.10;99268.27;1737386;79;21040;-35
2021/09/23 07:08:20;;;;;;;1.95;1.65;;;;;;;9.75;67.57;99266.19;1788134;80;21037;-35
2021/09/23 07:10:49;;;;;;;1.92;1.50;;;;;;;9.77;67.62;99273.96;1787708;79;21999;-34
2021/09/23 07:13:17;;;;;;;1.62;1.50;;;;;;;9.79;67.61;99274.38;1793335;79;20993;-34
2021/09/23 07:15:45;;;;;;;2.02;1.50;;;;;;;9.77;68.09;99266.63;1765005;79;20988;-34
2021/09/23 07:18:12;;;;;;;1.45;1.25;;;;;;;9.79;67.69;99271.10;1779775;78;20965;-34
2021/09/23 07:20:40;;;;;;;1.80;1.40;;;;;;;9.80;67.92;99263.20;1778047;78;21558;-34
2021/09/23 07:23:10;;;;;;;2.67;1.85;;;;;;;9.77;67.22;99261.78;1778459;78;21113;-34
2021/09/23 07:25:36;;;;;;;1.65;1.40;;;;;;;9.66;67.36;99261.56;1790144;80;21090;-34
2021/09/23 07:28:04;;;;;;;2.85;1.87;;;;;;;9.55;67.51;99268.66;1788190;80;21417;-34
2021/09/23 07:30:30;;;;;;;1.77;1.60;;;;;;;9.46;67.84;99265.38;1775834;80;21033;-34
2021/09/23 07:32:58;;;;;;;3.10;1.47;;;;;;;9.37;68.21;99266.14;1789782;78;21626;-35
2021/09/23 07:35:25;;;;;;;1.80;1.60;;;;;;;9.32;68.77;99270.48;1793670;78;22003;-34
2021/09/23 07:37:52;;;;;;;1.95;1.60;;;;;;;9.25;68.99;99272.45;1761678;80;20993;-35
2021/09/23 07:40:18;;;;;;;3.50;2.02;;;;;;;9.20;69.16;99270.61;1781095;79;20985;-35
2021/09/23 07:42:45;;;;;;;1.70;1.52;;;;;;;9.11;69.75;99268.06;1763511;79;21026;-34
2021/09/23 07:45:12;;;;;;;2.17;1.87;;;;;;;9.07;70.36;99273.41;1770541;79;21065;-35
2021/09/23 07:47:40;;;;;;;4.70;2.55;;;;;;;9.02;70.62;99272.88;1769387;81;21134;-34
2021/09/23 07:50:08;;;;;;;5.80;2.12;;;;;;;9.03;70.62;99271.19;1771355;81;20962;-34
2021/09/23 07:52:35;;;;;;;2.20;2.00;;;;;;;9.13;70.89;99274.70;1765491;81;21512;-34
2021/09/23 07:55:03;;;;;;;3.08;2.05;;;;;;;9.24;70.75;99274.95;1771321;81;21488;-34
2021/09/23 07:57:30;;;;;;;2.85;2.62;;;;;;;9.28;70.90;99271.76;1771189;81;21003;-34
2021/09/23 07:59:59;;;;;;;2.95;2.10;;;;;;;9.31;70.29;99264.84;1770034;79;22039;-34
2021/09/23 08:02:27;;;;;;;3.72;2.30;;;;;;;9.35;70.66;99261.08;1769352;79;20998;-33
2021/09/23 08:04:54;;;;;;;3.12;1.60;;;;;;;9.46;70.04;99260.75;1786454;79;20969;-34
2021/09/23 08:07:21;;;;;;;2.37;1.85;;;;;;;9.55;69.83;99263.25;1757196;80;20969;-34
2021/09/23 08:09:48;;;;;;;2.02;1.70;;;;;;;9.62;69.27;99255.30;1731467;81;21053;-34
2021/09/23 08:12:15;;;;;;;2.00;1.60;;;;;;;9.66;69.09;99252.08;1739400;82;21169;-34
2021/09/23 08:14:42;;;;;;;1.50;1.35;;;;;;;9.72;69.13;99252.02;1736096;81;21069;-34
2021/09/23 08:17:30;;;;;;;2.72;1.50;;;;;;;9.81;69.22;99252.59;1746412;80;21621;-34
2021/09/23 08:20:06;;;;;;;1.42;1.30;;;;;;;9.87;68.70;99246.32;1736128;81;21096;-34
2021/09/23 08:22:35;;;;;;;1.42;1.22;;;;;;;9.91;67.67;99249.31;1729875;81;20990;-33
2021/09/23 08:25:05;;;;;;;1.70;1.40;;;;;;;9.92;67.91;99249.50;1763352;80;21111;-34
2021/09/23 08:27:31;;;;;;;1.65;1.37;;;;;;;9.88;67.60;99252.72;1741906;82;21022;-33
2021/09/23 08:29:58;;;;;;;1.55;1.00;;;;;;;9.80;68.37;99249.66;1739716;82;21000;-34
2021/09/23 08:32:27;;;;;;;1.02;0.93;;;;;;;9.76;67.97;99243.97;1748572;81;20982;-33
2021/09/23 08:34:55;;;;;;;1.62;1.12;;;;;;;9.69;67.56;99247.87;1735016;81;21029;-33
2021/09/23 08:37:22;;;;;;;1.22;0.95;;;;;;;9.60;67.86;99243.45;1742233;80;21129;-33
2021/09/23 08:39:49;;;;;;;1.00;0.90;;;;;;;9.61;68.51;99241.53;1741797;80;21147;-34
2021/09/23 08:42:16;;;;;;;0.90;0.70;;;;;;;9.66;67.51;99246.67;1731830;82;20999;-33
2021/09/23 08:44:43;;;;;;;1.95;1.30;;;;;;;9.67;67.27;99245.53;1732440;82;21016;-34
2021/09/23 08:47:12;;;;;;;1.30;0.90;;;;;;;9.63;67.71;99236.56;1760368;80;20956;-34
2021/09/23 08:49:39;;;;;;;0.80;0.80;;;;;;;9.64;68.15;99240.81;1746811;82;21142;-34
2021/09/23 08:52:08;;;;;;;1.27;0.80;;;;;;;9.66;68.08;99248.02;1732454;82;21517;-34
2021/09/23 08:54:35;;;;;;;1.40;1.30;;;;;;;9.66;67.55;99245.88;1733746;82;20935;-34
2021/09/23 08:57:02;;;;;;;1.70;1.60;;;;;;;9.64;67.12;99244.88;1745388;82;20971;-34
2021/09/23 08:59:32;;;;;;;2.33;1.20;;;;;;;9.58;67.73;99243.61;1748414;82;21861;-34
2021/09/23 09:02:01;;;;;;;2.55;1.30;;;;;;;9.53;67.84;99238.48;1757856;80;21126;-33
2021/09/23 09:04:33;;;;;;;1.67;1.35;;;;;;;9.49;67.04;99243.01;1747788;80;21530;-36
2021/09/23 09:07:04;;;;;;;0.80;0.80;;;;;;;9.41;66.55;99245.36;1729724;82;21390;-33
2021/09/23 09:09:47;;;;;;;2.20;1.50;;;;;;;9.38;67.43;99239.31;1741085;82;21652;-34
2021/09/23 09:12:16;;;;;;;1.42;1.07;;;;;;;9.43;67.20;99237.12;1750653;81;21027;-34
2021/09/23 09:14:47;;;;;;;1.00;0.90;;;;;;;9.52;67.18;99230.14;1750633;82;21131;-34
2021/09/23 09:17:18;;;;;;;2.00;0.90;;;;;;;9.58;67.63;99230.08;1750374;81;21065;-34
2021/09/23 09:19:55;;;;;;;0.95;0.80;;;;;;;9.66;67.64;99232.34;1748532;81;21066;-33
2021/09/23 09:22:24;;;;;;;2.87;1.00;;;;;;;9.76;67.33;99227.72;1750474;82;20933;-34
2021/09/23 09:25:05;;;;;;;2.33;0.90;;;;;;;9.85;68.25;99220.95;1750683;82;21032;-34
2021/09/23 09:27:42;;;;;;;0.70;0.70;;;;;;;10.02;66.97;99218.38;1750526;82;21134;-34
2021/09/23 09:30:22;;;;;;;0.78;0.75;;;;;;;10.21;65.57;99218.94;1750926;82;20920;-34
2021/09/23 09:32:57;;;;;;;1.15;1.00;;;;;;;10.31;64.56;99221.05;1746342;82;21050;-34
2021/09/23 09:35:30;;;;;;;0.82;0.72;;;;;;;10.39;64.47;99215.96;1748738;82;21012;-35
2021/09/23 09:38:02;;;;;;;1.55;0.70;;;;;;;10.42;64.45;99209.81;1750632;82;21087;-35
2021/09/23 09:40:36;;;;;;;1.75;0.90;;;;;;;10.51;65.10;99207.63;1748798;81;21115;-35
2021/09/23 09:43:10;;;;;;;1.25;0.80;;;;;;;10.64;64.62;99210.39;1725106;81;21054;-34
2021/09/23 09:45:39;;;;;;;0.70;0.70;;;;;;;10.68;61.83;99214.50;1754652;81;20960;-35
2021/09/23 09:48:06;;;;;;;1.07;0.70;;;;;;;10.67;62.93;99213.72;1754441;81;21557;-35
2021/09/23 09:50:39;;;;;;;0.93;0.80;;;;;;;10.65;62.60;99207.86;1758956;81;21079;-35
2021/09/23 09:55:41;;;;;;;1.52;1.37;;;;;;;10.50;63.53;99208.80;1835931;78;22692;-34
2021/09/23 09:58:11;;;;;;;1.82;1.20;;;;;;;10.28;64.46;99221.76;1806147;79;20959;-34
2021/09/23 10:00:39;;;;;;;1.62;1.37;;;;;;;10.19;64.69;99226.63;1755779;79;22317;-34
2021/09/23 10:03:07;;;;;;;1.20;1.10;;;;;;;10.13;64.97;99222.61;1753159;81;20952;-35
2021/09/23 10:05:35;;;;;;;1.30;1.00;;;;;;;10.11;65.46;99223.56;1719624;83;21777;-35
2021/09/23 10:08:05;;;;;;;1.42;1.10;;;;;;;10.14;65.02;99226.33;1709289;83;20993;-34
2021/09/23 10:10:34;;;;;;;2.30;1.02;;;;;;;10.14;65.27;99222.27;1679590;84;21587;-34
2021/09/23 10:13:04;;;;;;;1.40;1.30;;;;;;;10.16;64.78;99229.50;1709628;82;21005;-34
2021/09/23 10:15:31;;;;;;;1.75;1.00;;;;;;;10.20;64.69;99230.34;1723189;82;20933;-34
2021/09/23 10:18:03;;;;;;;2.05;1.20;;;;;;;10.23;64.81;99229.61;1729010;81;20973;-34
2021/09/23 10:20:33;;;;;;;1.30;1.20;;;;;;;10.25;63.88;99225.98;1713218;82;21008;-34
2021/09/23 10:23:00;;;;;;;1.05;0.95;;;;;;;10.25;64.01;99227.91;1709241;84;21013;-34
2021/09/23 10:25:32;;;;;;;1.57;1.10;;;;;;;10.21;64.01;99228.42;1709093;83;21061;-34
2021/09/23 10:28:02;;;;;;;1.32;1.05;;;;;;;10.13;64.19;99224.75;1708962;83;21013;-34
2021/09/23 10:30:41;;;;;;;1.82;1.25;;;;;;;10.05;64.28;99233.91;1709062;83;21010;-34
2021/09/23 10:33:09;;;;;;;1.17;1.00;;;;;;;9.96;64.98;99236.05;1712232;82;20977;-34
2021/09/23 10:35:37;;;;;;;1.10;1.00;;;;;;;9.88;65.60;99233.77;1725818;82;21104;-34
2021/09/23 10:38:08;;;;;;;1.00;0.88;;;;;;;9.84;66.27;99241.60;1709195;83;21141;-34
2021/09/23 10:40:37;;;;;;;1.07;1.02;;;;;;;9.81;66.86;99232.28;1702552;83;20988;-34
2021/09/23 10:43:09;;;;;;;0.98;0.90;;;;;;;9.82;66.86;99240.63;1709211;84;20958;-34
2021/09/23 10:45:38;;;;;;;3.52;1.30;;;;;;;9.78;67.01;99236.28;1708943;84;20996;-34
2021/09/23 10:48:06;;;;;;;1.98;1.12;;;;;;;9.75;67.16;99233.70;1679524;84;21127;-34
2021/09/23 10:50:35;;;;;;;1.42;1.10;;;;;;;9.76;67.22;99233.92;1679055;84;21139;-34
2021/09/23 10:53:08;;;;;;;1.55;1.10;;;;;;;9.80;67.55;99233.42;1709071;84;20989;-34
2021/09/23 10:55:42;;;;;;;1.22;0.90;;;;;;;9.84;67.57;99230.77;1699944;83;20985;-34
2021/09/23 10:58:07;;;;;;;1.85;1.20;;;;;;;9.81;67.86;99233.64;1676899;84;21039;-34
2021/09/23 11:00:35;;;;;;;1.52;1.12;;;;;;;9.82;67.83;99236.56;1699207;84;21057;-34
2021/09/23 11:03:08;;;;;;;1.92;1.02;;;;;;;9.81;67.14;99235.56;1699890;83;21142;-34
2021/09/23 11:05:36;;;;;;;2.15;1.35;;;;;;;9.73;67.23;99240.63;1698999;83;21061;-34
2021/09/23 11:08:09;;;;;;;1.37;1.27;;;;;;;9.66;67.63;99235.05;1707191;83;20978;-34
2021/09/23 11:10:41;;;;;;;2.35;1.30;;;;;;;9.63;67.84;99225.73;1727680;82;21505;-34
2021/09/23 11:13:10;;;;;;;2.55;1.10;;;;;;;9.60;67.27;99226.43;1705926;83;21089;-34
2021/09/23 11:15:41;;;;;;;2.02;1.07;;;;;;;9.54;67.38;99232.69;1727860;83;21112;-34
2021/09/23 11:18:10;;;;;;;1.17;0.90;;;;;;;9.54;67.72;99229.98;1727747;83;22090;-34
2021/09/23 11:20:38;;;;;;;1.25;1.10;;;;;;;9.57;67.87;99231.21;1727274;83;21590;-34
2021/09/23 11:23:08;;;;;;;1.53;1.33;;;;;;;9.55;68.30;99239.68;1745925;80;20976;-34
2021/09/23 11:25:40;;;;;;;1.30;1.20;;;;;;;9.53;68.38;99239.83;1777357;80;20998;-34
2021/09/23 11:28:09;;;;;;;3.22;1.20;;;;;;;9.46;68.90;99236.97;1777321;80;21086;-34
2021/09/23 11:30:37;;;;;;;1.67;1.05;;;;;;;9.43;69.52;99244.45;1745068;80;21519;-34
2021/09/23 11:33:11;;;;;;;1.13;1.00;;;;;;;9.44;69.57;99233.84;1731182;80;20953;-34
2021/09/23 11:35:41;;;;;;;1.40;1.10;;;;;;;9.44;70.13;99237.31;1721816;83;21050;-34
2021/09/23 11:38:09;;;;;;;;;;;;;;;9.44;70.36;99241.97;1708738;84;21080;-34
2021/09/23 11:40:40;;;;;;;1.02;0.85;;;;;;;9.45;70.36;99235.39;1693205;84;21832;-34
2021/09/23 11:43:12;;;;;;;0.95;0.90;;;;;;;9.30;70.58;99242.41;1706546;83;21593;-34
2021/09/23 11:45:44;;;;;;;2.00;0.98;;;;;;;9.28;71.07;99241.22;1737511;82;20989;-34
2021/09/23 11:48:20;;;;;;;1.82;1.20;;;;;;;9.32;71.32;99236.09;1722065;83;21023;-34
2021/09/23 11:51:09;;;;;;;1.77;1.40;;;;;;;9.38;71.36;99242.02;1710278;83;21113;-34
2021/09/23 11:53:38;;;;;;;1.40;1.30;;;;;;;9.39;71.52;99235.48;1717670;82;21014;-34